createdAt,value
2018-04-07T00:02:09.181Z,27.53
2018-04-07T00:04:36.942Z,29.40
2018-04-07T00:07:04.764Z,25.63
2018-04-07T00:09:32.506Z,27.70
2018-04-07T00:12:00.273Z,27.30
2018-04-07T00:14:28.133Z,23.57
2018-04-07T00:16:55.881Z,28.67
2018-04-07T00:19:24.404Z,34.60
2018-04-07T00:21:52.163Z,31.50
2018-04-07T00:24:19.909Z,26.40
2018-04-07T00:26:47.653Z,34.17
2018-04-07T00:29:16.174Z,31.30
2018-04-07T00:31:43.924Z,33.50
2018-04-07T00:34:11.705Z,34.90
2018-04-07T00:36:39.465Z,25.30
2018-04-07T00:39:07.221Z,26.03
2018-04-07T00:41:34.965Z,26.77
2018-04-07T00:44:02.735Z,30.63
2018-04-07T00:46:30.508Z,34.53
2018-04-07T00:48:58.264Z,21.60
2018-04-07T00:51:26.020Z,38.13
2018-04-07T00:53:54.550Z,22.30
2018-04-07T00:56:22.296Z,28.03
2018-04-07T00:58:50.061Z,24.10
2018-04-07T01:01:17.824Z,34.63
2018-04-07T01:03:45.589Z,27.40
2018-04-07T01:06:13.402Z,30.67
2018-04-07T01:08:41.920Z,27.90
2018-04-07T01:11:09.690Z,31.23
2018-04-07T01:13:37.452Z,18.23
2018-04-07T01:16:05.298Z,29.73
2018-04-07T01:18:33.065Z,26.60
2018-04-07T01:21:00.813Z,29.90
2018-04-07T01:23:29.322Z,37.93
2018-04-07T01:25:57.090Z,30.47
2018-04-07T01:28:24.847Z,34.43
2018-04-07T01:30:52.703Z,27.93
2018-04-07T01:33:20.484Z,32.20
2018-04-07T01:35:48.243Z,28.33
2018-04-07T01:38:16.010Z,32.97
2018-04-07T01:40:43.766Z,27.07
2018-04-07T01:43:11.533Z,25.27
2018-04-07T01:45:39.296Z,38.13
2018-04-07T01:48:07.061Z,28.57
2018-04-07T01:50:34.998Z,24.63
2018-04-07T01:53:03.525Z,36.57
2018-04-07T01:55:31.276Z,31.77
2018-04-07T01:57:59.045Z,38.43
2018-04-07T02:00:26.832Z,35.33
2018-04-07T02:02:54.600Z,27.17
2018-04-07T02:05:22.340Z,34.73
2018-04-07T02:07:50.109Z,32.70
2018-04-07T02:10:17.853Z,41.10
2018-04-07T02:12:45.656Z,28.20
2018-04-07T02:15:13.401Z,31.50
2018-04-07T02:17:41.145Z,24.43
2018-04-07T02:20:08.889Z,27.33
2018-04-07T02:22:37.400Z,41.20
2018-04-07T02:25:05.158Z,28.40
2018-04-07T02:27:32.900Z,29.50
2018-04-07T02:30:01.496Z,33.93
2018-04-07T02:32:29.264Z,32.57
2018-04-07T02:34:57.025Z,34.33
2018-04-07T02:37:24.787Z,30.30
2018-04-07T02:39:52.591Z,31.77
2018-04-07T02:42:20.350Z,27.40
2018-04-07T02:44:48.114Z,32.73
2018-04-07T02:47:15.854Z,28.27
2018-04-07T02:49:43.625Z,30.13
2018-04-07T02:52:11.460Z,32.07
2018-04-07T02:54:39.992Z,32.00
2018-04-07T02:57:07.745Z,28.10
2018-04-07T02:59:35.514Z,40.07
2018-04-07T03:02:03.272Z,37.73
2018-04-07T03:04:31.031Z,35.83
2018-04-07T03:06:58.811Z,26.63
2018-04-07T03:09:26.567Z,43.30
2018-04-07T03:11:54.315Z,28.77
2018-04-07T03:14:22.065Z,34.37
2018-04-07T03:16:49.822Z,36.77
2018-04-07T03:19:17.640Z,28.67
2018-04-07T03:21:46.152Z,37.75
2018-04-07T03:24:14.672Z,40.47
2018-04-07T03:26:42.449Z,27.60
2018-04-07T03:29:10.206Z,40.10
2018-04-07T03:31:37.958Z,39.50
2018-04-07T03:34:05.750Z,34.00
2018-04-07T03:36:33.517Z,37.80
2018-04-07T03:39:01.275Z,27.53
2018-04-07T03:41:29.049Z,31.27
2018-04-07T03:43:56.798Z,28.53
2018-04-07T03:46:24.598Z,30.70
2018-04-07T03:48:52.401Z,39.00
2018-04-07T03:51:20.228Z,31.80
2018-04-07T03:53:48.014Z,23.23
2018-04-07T03:56:16.528Z,33.23
2018-04-07T03:58:44.372Z,23.50
2018-04-07T04:01:12.137Z,30.40
2018-04-07T04:03:39.916Z,22.70
2018-04-07T04:06:07.723Z,26.33
2018-04-07T04:08:35.481Z,36.30
2018-04-07T04:11:03.237Z,29.50
2018-04-07T04:13:30.988Z,25.20
2018-04-07T04:15:58.746Z,29.33
2018-04-07T04:18:26.501Z,24.20
2018-04-07T04:20:54.253Z,33.87
2018-04-07T04:23:22.029Z,26.47
2018-04-07T04:25:49.816Z,24.40
2018-04-07T04:28:17.567Z,26.93
2018-04-07T04:30:45.323Z,26.93
2018-04-07T04:33:13.056Z,29.63
2018-04-07T04:35:41.602Z,40.40
2018-04-07T04:38:09.359Z,23.53
2018-04-07T04:40:37.110Z,25.33
2018-04-07T04:43:04.874Z,27.93
2018-04-07T04:45:32.622Z,36.67
2018-04-07T04:48:00.385Z,29.47
2018-04-07T04:50:28.129Z,37.30
2018-04-07T04:52:56.636Z,29.90
2018-04-07T04:55:24.419Z,36.53
2018-04-07T04:57:52.167Z,38.00
2018-04-07T05:00:19.928Z,35.57
2018-04-07T05:02:47.697Z,33.20
2018-04-07T05:05:15.456Z,28.90
2018-04-07T05:07:43.220Z,25.53
2018-04-07T05:10:10.984Z,40.73
2018-04-07T05:12:38.725Z,28.53
2018-04-07T05:15:06.488Z,26.80
2018-04-07T05:17:34.284Z,29.50
2018-04-07T05:20:02.048Z,33.93
2018-04-07T05:22:29.792Z,43.93
2018-04-07T05:24:57.538Z,37.63
2018-04-07T05:27:26.070Z,33.80
2018-04-07T05:29:53.834Z,19.70
2018-04-07T05:32:21.598Z,22.90
2018-04-07T05:34:49.340Z,25.57
2018-04-07T05:37:17.200Z,37.27
2018-04-07T05:39:44.950Z,30.37
2018-04-07T05:42:12.789Z,31.73
2018-04-07T05:44:41.330Z,36.40
2018-04-07T05:47:09.105Z,33.80
2018-04-07T05:49:36.873Z,32.73
2018-04-07T05:52:05.432Z,28.57
2018-04-07T05:54:33.220Z,24.57
2018-04-07T05:57:01.014Z,37.83
2018-04-07T05:59:29.585Z,31.83
2018-04-07T06:01:57.333Z,30.53
2018-04-07T06:04:25.095Z,39.00
2018-04-07T06:06:52.880Z,48.53
2018-04-07T06:09:20.628Z,32.10
2018-04-07T06:11:48.386Z,31.67
2018-04-07T06:14:16.170Z,27.03
2018-04-07T06:16:43.913Z,27.20
2018-04-07T06:19:11.673Z,33.37
2018-04-07T06:21:39.425Z,21.00
2018-04-07T06:24:07.196Z,27.53
2018-04-07T06:26:34.966Z,40.73
2018-04-07T06:29:02.725Z,30.77
2018-04-07T06:31:30.460Z,28.57
2018-04-07T06:33:58.232Z,35.57
2018-04-07T06:36:25.999Z,31.17
2018-04-07T06:38:53.784Z,38.57
2018-04-07T06:41:21.537Z,38.67
2018-04-07T06:43:49.284Z,34.13
2018-04-07T06:46:17.092Z,26.57
2018-04-07T06:48:44.845Z,30.37
2018-04-07T06:51:12.599Z,36.10
2018-04-07T06:53:40.358Z,32.03
2018-04-07T06:56:08.137Z,32.10
2018-04-07T06:58:35.890Z,42.87
2018-04-07T07:01:03.636Z,46.03
2018-04-07T07:03:31.384Z,29.00
2018-04-07T07:05:59.146Z,28.07
2018-04-07T07:08:26.917Z,36.73
2018-04-07T07:10:54.688Z,37.53
2018-04-07T07:13:22.444Z,35.70
2018-04-07T07:15:50.185Z,37.50
2018-04-07T07:18:18.811Z,31.17
2018-04-07T07:20:46.688Z,36.80
2018-04-07T07:23:14.468Z,22.57
2018-04-07T07:25:42.315Z,30.93
2018-04-07T07:28:10.873Z,35.13
2018-04-07T07:30:38.640Z,23.60
2018-04-07T07:33:06.390Z,39.40
2018-04-07T07:35:34.172Z,29.17
2018-04-07T07:38:01.920Z,33.90
2018-04-07T07:40:29.680Z,42.83
2018-04-07T07:42:57.473Z,26.70
2018-04-07T07:45:25.228Z,46.60
2018-04-07T07:47:53.015Z,35.77
2018-04-07T07:50:20.756Z,29.80
2018-04-07T07:52:48.570Z,32.57
2018-04-07T07:55:16.313Z,32.87
2018-04-07T07:57:44.074Z,27.97
2018-04-07T08:00:11.845Z,37.97
2018-04-07T08:02:39.603Z,31.10
2018-04-07T08:05:07.446Z,36.23
2018-04-07T08:07:35.208Z,38.83
2018-04-07T08:10:03.027Z,29.00
2018-04-07T08:12:33.137Z,24.63
2018-04-07T08:15:00.908Z,31.70
2018-04-07T08:17:29.458Z,31.53
2018-04-07T08:19:57.216Z,44.00
2018-04-07T08:22:25.671Z,30.13
2018-04-07T08:24:53.432Z,25.53
2018-04-07T08:27:21.217Z,43.07
2018-04-07T08:29:49.303Z,35.17
2018-04-07T08:32:17.142Z,27.43
2018-04-07T08:34:45.277Z,32.00
2018-04-07T08:37:14.864Z,37.57
2018-04-07T08:39:40.890Z,31.97
2018-04-07T08:42:08.649Z,36.33
2018-04-07T08:44:36.413Z,34.93
2018-04-07T08:47:04.197Z,43.93
2018-04-07T08:49:32.733Z,43.50
2018-04-07T08:52:00.579Z,35.37
2018-04-07T08:54:28.344Z,41.22
2018-04-07T08:56:56.224Z,29.53
2018-04-07T08:59:23.992Z,32.80
2018-04-07T09:01:51.746Z,29.23
2018-04-07T09:04:19.524Z,30.57
2018-04-07T09:06:47.680Z,22.33
2018-04-07T09:09:15.444Z,24.27
2018-04-07T09:11:43.266Z,30.40
2018-04-07T09:14:11.848Z,32.83
2018-04-07T09:16:40.385Z,36.13
2018-04-07T09:19:08.202Z,33.97
2018-04-07T09:21:37.222Z,32.13
2018-04-07T09:24:05.000Z,34.50
2018-04-07T09:26:32.785Z,38.60
2018-04-07T09:29:00.549Z,27.63
2018-04-07T09:31:28.339Z,34.60
2018-04-07T09:33:56.090Z,30.80
2018-04-07T09:36:23.841Z,36.63
2018-04-07T09:38:51.592Z,25.83
2018-04-07T09:41:19.381Z,38.77
2018-04-07T09:43:47.214Z,37.67
2018-04-07T09:46:15.025Z,28.90
2018-04-07T09:48:43.963Z,29.10
2018-04-07T09:51:11.947Z,33.23
2018-04-07T09:53:40.901Z,23.90
2018-04-07T09:56:09.216Z,29.53
2018-04-07T09:58:36.992Z,31.23
2018-04-07T10:01:04.788Z,22.20
2018-04-07T10:03:32.545Z,33.87
2018-04-07T10:06:00.313Z,21.97
2018-04-07T10:08:28.088Z,21.13
2018-04-07T10:10:56.669Z,20.67
2018-04-07T10:13:25.200Z,23.87
2018-04-07T10:15:53.020Z,20.77
2018-04-07T10:18:20.793Z,29.30
2018-04-07T10:20:49.341Z,23.37
2018-04-07T10:23:17.105Z,22.57
2018-04-07T10:25:44.932Z,22.93
2018-04-07T10:28:12.708Z,23.15
2018-04-07T10:30:40.488Z,27.03
2018-04-07T10:33:08.272Z,17.07
2018-04-07T10:35:36.053Z,15.67
2018-04-07T10:38:04.585Z,26.07
2018-04-07T10:40:32.348Z,11.67
2018-04-07T10:43:00.137Z,16.83
2018-04-07T10:45:27.888Z,21.43
2018-04-07T11:41:07.517Z,18.63
2018-04-07T11:43:35.323Z,12.37
2018-04-07T11:46:03.224Z,15.83
2018-04-07T11:48:31.788Z,12.63
2018-04-07T11:50:59.554Z,11.47
2018-04-07T11:53:27.301Z,9.23
2018-04-07T11:55:55.081Z,7.60
2018-04-07T11:58:22.824Z,9.80
2018-04-07T12:00:50.583Z,27.23
2018-04-07T12:03:18.376Z,13.67
2018-04-07T12:05:46.165Z,8.23
2018-04-07T12:08:14.722Z,15.30
2018-04-07T12:10:42.481Z,9.60
2018-04-07T12:13:10.256Z,15.80
2018-04-07T12:15:38.030Z,11.03
2018-04-07T12:18:06.559Z,10.50
2018-04-07T12:20:34.345Z,10.73
2018-04-07T12:23:02.102Z,15.03
2018-04-07T12:25:29.883Z,12.90
2018-04-07T12:27:57.647Z,18.50
2018-04-07T12:30:25.407Z,12.90
2018-04-07T12:32:53.174Z,18.47
2018-04-07T12:35:20.920Z,12.97
2018-04-07T12:37:48.670Z,13.90
2018-04-07T12:40:16.442Z,9.50
2018-04-07T12:42:44.207Z,11.83
2018-04-07T12:45:11.961Z,10.00
2018-04-07T12:47:39.699Z,16.37
2018-04-07T12:50:07.472Z,9.47
2018-04-07T12:52:35.221Z,9.30
2018-04-07T12:55:03.792Z,10.73
2018-04-07T13:57:48.251Z,8.47
2018-04-07T14:00:16.068Z,10.23
2018-04-07T14:02:44.592Z,7.90
2018-04-07T14:05:12.339Z,14.63
2018-04-07T14:07:40.084Z,9.00
2018-04-07T14:10:08.597Z,8.43
2018-04-07T14:12:36.365Z,12.60
2018-04-07T14:15:04.150Z,8.83
2018-04-07T14:17:31.908Z,6.67
2018-04-07T14:19:59.653Z,13.70
2018-04-07T14:22:27.406Z,13.70
2018-04-07T14:24:55.212Z,8.13
2018-04-07T14:27:22.963Z,6.87
2018-04-07T14:29:50.715Z,10.00
2018-04-07T14:32:18.462Z,6.87
2018-04-07T14:34:46.210Z,14.60
2018-04-07T14:37:14.726Z,8.13
2018-04-07T14:39:42.481Z,6.60
2018-04-07T14:42:10.237Z,10.50
2018-04-07T14:44:38.023Z,11.53
2018-04-07T14:47:05.790Z,12.77
2018-04-07T14:49:33.584Z,14.13
2018-04-07T14:52:01.345Z,7.40
2018-04-07T14:54:29.109Z,10.40
2018-04-07T14:56:57.721Z,10.73
2018-04-07T14:59:26.242Z,7.83
2018-04-07T15:01:53.994Z,7.10
2018-04-07T15:04:21.732Z,11.70
2018-04-07T15:06:49.486Z,5.10
2018-04-07T15:09:18.001Z,16.57
2018-04-07T15:11:45.745Z,9.17
2018-04-07T15:14:13.489Z,8.17
2018-04-07T15:16:42.028Z,17.03
2018-04-07T15:19:09.779Z,11.23
2018-04-07T15:21:37.558Z,7.80
2018-04-07T15:24:05.322Z,13.87
2018-04-07T15:26:33.083Z,9.37
2018-04-07T15:29:00.836Z,7.23
2018-04-07T15:31:28.596Z,8.50
2018-04-07T15:33:57.116Z,6.17
2018-04-07T15:36:24.885Z,11.50
2018-04-07T15:38:52.643Z,7.33
2018-04-07T15:41:20.414Z,18.83
2018-04-07T15:43:48.190Z,8.10
2018-04-07T15:46:16.713Z,19.10
2018-04-07T15:48:44.485Z,12.40
2018-04-07T15:51:12.226Z,7.67
2018-04-07T15:53:39.984Z,11.57
2018-04-07T15:56:07.788Z,12.70
2018-04-07T15:58:35.528Z,8.23
2018-04-07T16:01:03.357Z,12.43
2018-04-07T16:03:31.884Z,12.60
2018-04-07T16:05:59.699Z,11.83
2018-04-07T16:08:27.521Z,5.33
2018-04-07T16:10:55.328Z,4.67
2018-04-07T16:13:23.060Z,15.03
2018-04-07T16:15:50.819Z,14.97
2018-04-07T16:18:18.562Z,9.73
2018-04-07T16:20:46.308Z,19.97
2018-04-07T16:23:14.053Z,12.40
2018-04-07T16:25:42.574Z,10.90
2018-04-07T16:28:10.319Z,8.00
2018-04-07T16:30:38.147Z,11.57
2018-04-07T16:33:05.964Z,13.47
2018-04-07T16:35:33.733Z,9.10
2018-04-07T16:38:01.558Z,13.63
2018-04-07T16:40:30.080Z,16.97
2018-04-07T16:42:57.824Z,12.00
2018-04-07T16:45:25.656Z,21.40
2018-04-07T16:47:54.191Z,19.37
2018-04-07T16:50:21.976Z,11.80
2018-04-07T16:52:49.725Z,12.80
2018-04-07T16:55:17.490Z,21.43
2018-04-07T16:57:45.308Z,18.27
2018-04-07T17:00:13.848Z,21.30
2018-04-07T17:02:41.668Z,13.80
2018-04-07T17:05:10.188Z,17.00
2018-04-07T17:07:37.940Z,17.67
2018-04-07T17:10:05.777Z,10.30
2018-04-07T17:12:33.672Z,19.43
2018-04-07T17:15:01.473Z,23.30
2018-04-07T17:17:29.221Z,13.57
2018-04-07T17:19:57.932Z,17.93
2018-04-07T17:22:25.676Z,23.83
2018-04-07T17:24:53.416Z,15.33
2018-04-07T17:27:21.472Z,15.03
2018-04-07T17:29:49.394Z,17.60
2018-04-07T17:32:17.985Z,15.07
2018-04-07T17:34:45.753Z,15.23
2018-04-07T17:37:14.284Z,12.17
2018-04-07T17:39:42.038Z,10.30
2018-04-07T17:42:09.822Z,15.63
2018-04-07T17:44:37.697Z,17.43
2018-04-07T17:47:05.457Z,21.80
2018-04-07T17:49:43.606Z,11.97
2018-04-07T17:52:01.082Z,19.63
2018-04-07T17:54:28.839Z,12.87
2018-04-07T17:56:56.641Z,16.97
2018-04-07T17:59:24.381Z,11.60
2018-04-07T18:01:52.286Z,13.37
2018-04-07T18:04:20.874Z,18.00
2018-04-07T18:06:49.393Z,13.17
2018-04-07T18:09:17.198Z,16.97
2018-04-07T18:11:44.947Z,16.13
2018-04-07T18:14:12.702Z,17.13
2018-04-07T18:16:40.460Z,14.43
2018-04-07T18:19:08.266Z,15.77
2018-04-07T18:21:36.787Z,21.20
2018-04-07T18:24:04.540Z,13.27
2018-04-07T18:26:32.316Z,15.87
2018-04-07T18:29:00.173Z,18.10
2018-04-07T18:31:27.980Z,18.13
2018-04-07T18:33:55.736Z,13.70
2018-04-07T18:36:23.488Z,12.40
2018-04-07T18:38:51.290Z,8.93
2018-04-07T18:41:19.193Z,16.47
2018-04-07T18:43:46.972Z,16.23
2018-04-07T18:46:14.726Z,20.00
2018-04-07T18:48:42.485Z,15.10
2018-04-07T18:51:10.245Z,11.33
2018-04-07T18:53:38.133Z,10.13
2018-04-07T18:56:05.997Z,15.30
2018-04-07T18:58:33.951Z,15.17
2018-04-07T19:01:01.872Z,13.80
2018-04-07T19:03:29.826Z,15.80
2018-04-07T19:05:57.570Z,15.10
2018-04-07T19:08:25.412Z,13.67
2018-04-07T19:10:53.318Z,12.00
2018-04-07T19:13:21.076Z,13.80
2018-04-07T19:15:48.903Z,15.83
2018-04-07T19:18:17.416Z,18.00
2018-04-07T19:20:45.184Z,22.73
2018-04-07T19:23:13.045Z,14.93
2018-04-07T19:25:40.845Z,12.40
2018-04-07T19:28:09.404Z,13.93
2018-04-07T19:30:37.258Z,24.00
2018-04-07T19:33:05.023Z,8.30
2018-04-07T19:35:32.856Z,10.80
2018-04-07T19:38:01.432Z,11.90
2018-04-07T19:40:29.947Z,10.60
2018-04-07T19:42:57.766Z,15.40
2018-04-07T19:45:25.591Z,17.33
2018-04-07T19:47:53.351Z,22.30
2018-04-07T19:50:21.110Z,14.23
2018-04-07T19:52:48.932Z,13.93
2018-04-07T19:55:17.475Z,10.00
2018-04-07T19:57:45.220Z,14.27
2018-04-07T20:00:13.037Z,18.57
2018-04-07T20:02:40.792Z,21.50
2018-04-07T20:05:08.560Z,16.70
2018-04-07T20:07:36.377Z,23.00
2018-04-07T20:10:04.949Z,11.53
2018-04-07T20:12:32.783Z,17.30
2018-04-07T20:15:01.339Z,17.40
2018-04-07T20:17:29.118Z,16.60
2018-04-07T20:19:56.869Z,19.63
2018-04-07T20:22:24.736Z,14.30
2018-04-07T20:24:52.514Z,25.73
2018-04-07T20:27:20.277Z,21.70
2018-04-07T20:29:48.080Z,19.20
2018-04-07T20:32:15.859Z,20.33
2018-04-07T20:34:43.700Z,13.60
2018-04-07T20:37:11.540Z,12.63
2018-04-07T20:39:39.406Z,14.47
2018-04-07T20:42:19.195Z,20.97
2018-04-07T20:44:47.030Z,11.77
2018-04-07T20:47:15.578Z,16.13
2018-04-07T20:49:43.481Z,9.80
2018-04-07T20:52:12.378Z,10.20
2018-04-07T20:54:40.616Z,13.20
2018-04-07T20:57:08.439Z,10.03
2018-04-07T20:59:36.236Z,5.07
2018-04-07T21:02:04.084Z,14.03
2018-04-07T21:04:31.884Z,8.00
2018-04-07T21:06:59.829Z,8.57
2018-04-07T21:09:27.711Z,8.80
2018-04-07T21:11:55.673Z,9.80
2018-04-07T21:14:23.520Z,8.80
2018-04-07T21:16:51.359Z,8.67
2018-04-07T21:19:19.125Z,10.50
2018-04-07T21:21:48.383Z,9.87
2018-04-07T21:24:16.294Z,17.63
2018-04-07T21:26:44.086Z,13.70
2018-04-07T21:29:11.875Z,13.83
2018-04-07T21:31:39.687Z,8.57
2018-04-07T21:34:07.495Z,14.50
2018-04-07T21:36:35.358Z,12.50
2018-04-07T21:39:03.311Z,11.83
2018-04-07T21:41:32.579Z,8.90
2018-04-07T21:44:00.400Z,9.80
2018-04-07T21:46:28.276Z,13.10
2018-04-07T21:48:56.098Z,10.00
2018-04-07T21:51:23.829Z,9.43
2018-04-07T21:53:52.336Z,10.20
2018-04-07T21:56:20.085Z,6.53
2018-04-07T21:58:47.829Z,7.00
2018-04-07T22:01:15.692Z,7.43
2018-04-07T22:03:43.489Z,7.33
2018-04-07T22:06:11.249Z,5.30
2018-04-07T22:08:39.103Z,10.60
2018-04-07T22:11:07.684Z,5.93
2018-04-07T22:13:36.219Z,15.20
2018-04-07T22:16:03.983Z,6.30
2018-04-07T22:18:32.240Z,5.37
2018-04-07T22:21:00.000Z,8.73
2018-04-07T22:23:27.752Z,6.50
2018-04-07T22:25:55.552Z,13.67
2018-04-07T22:28:23.793Z,11.90
2018-04-07T22:30:51.602Z,9.93
2018-04-07T22:33:19.420Z,7.60
2018-04-07T22:35:47.265Z,6.93
2018-04-07T22:38:15.104Z,5.93
2018-04-07T22:40:42.866Z,7.30
2018-04-07T22:46:31.557Z,9.73
2018-04-07T22:49:01.289Z,4.23
2018-04-07T22:51:29.077Z,15.93
2018-04-07T23:16:40.250Z,11.50
2018-04-07T23:22:29.001Z,10.73
2018-04-07T23:24:56.771Z,16.20
2018-04-07T23:57:24.837Z,12.93
2018-04-07T23:59:52.596Z,12.03
